sensor_id;sensor_type;location;lat;lon;timestamp;P1;durP1;ratioP1;P2;durP2;ratioP2
31974;SDS011;18500;43.618;1.474;2022-12-07T07:13:09;514.75;;;479.20;;
31974;SDS011;18500;43.618;1.474;2022-12-07T07:15:36;540.15;;;503.48;;
31974;SDS011;18500;43.618;1.474;2022-12-07T07:18:03;536.67;;;499.75;;
31974;SDS011;18500;43.618;1.474;2022-12-07T07:20:28;540.83;;;503.70;;
31974;SDS011;18500;43.618;1.474;2022-12-07T07:22:54;560.08;;;521.05;;
31974;SDS011;18500;43.618;1.474;2022-12-07T07:25:20;560.97;;;521.53;;
31974;SDS011;18500;43.618;1.474;2022-12-07T07:27:46;520.95;;;484.10;;
31974;SDS011;18500;43.618;1.474;2022-12-07T07:30:12;579.08;;;537.78;;
31974;SDS011;18500;43.618;1.474;2022-12-07T07:32:38;561.47;;;521.67;;
31974;SDS011;18500;43.618;1.474;2022-12-07T07:35:04;592.88;;;550.67;;
31974;SDS011;18500;43.618;1.474;2022-12-07T07:37:30;562.97;;;522.88;;
31974;SDS011;18500;43.618;1.474;2022-12-07T07:39:55;559.90;;;520.20;;
31974;SDS011;18500;43.618;1.474;2022-12-07T07:42:21;561.78;;;521.75;;
31974;SDS011;18500;43.618;1.474;2022-12-07T07:44:47;655.30;;;608.80;;
31974;SDS011;18500;43.618;1.474;2022-12-07T07:47:13;579.35;;;537.42;;
31974;SDS011;18500;43.618;1.474;2022-12-07T07:49:38;617.55;;;572.35;;
31974;SDS011;18500;43.618;1.474;2022-12-07T07:52:07;608.72;;;565.38;;
31974;SDS011;18500;43.618;1.474;2022-12-07T07:54:33;583.22;;;541.90;;
31974;SDS011;18500;43.618;1.474;2022-12-07T07:56:58;577.85;;;536.83;;
31974;SDS011;18500;43.618;1.474;2022-12-07T07:59:24;622.88;;;577.55;;
31974;SDS011;18500;43.618;1.474;2022-12-07T08:01:50;853.42;;;785.65;;
31974;SDS011;18500;43.618;1.474;2022-12-07T08:04:16;893.97;;;821.33;;
31974;SDS011;18500;43.618;1.474;2022-12-07T08:06:41;889.17;;;816.05;;
31974;SDS011;18500;43.618;1.474;2022-12-07T08:09:07;832.63;;;767.17;;
31974;SDS011;18500;43.618;1.474;2022-12-07T08:11:33;853.88;;;786.92;;
31974;SDS011;18500;43.618;1.474;2022-12-07T08:14:00;879.55;;;806.78;;
31974;SDS011;18500;43.618;1.474;2022-12-07T08:16:25;871.85;;;801.90;;
31974;SDS011;18500;43.618;1.474;2022-12-07T08:18:51;846.05;;;780.35;;
31974;SDS011;18500;43.618;1.474;2022-12-07T08:21:17;823.78;;;760.58;;
31974;SDS011;18500;43.618;1.474;2022-12-07T08:23:42;774.35;;;717.03;;
31974;SDS011;18500;43.618;1.474;2022-12-07T08:26:09;491.65;;;455.08;;
31974;SDS011;18500;43.618;1.474;2022-12-07T08:28:37;532.90;;;495.55;;
31974;SDS011;18500;43.618;1.474;2022-12-07T08:31:21;480.23;;;446.42;;
31974;SDS011;18500;43.618;1.474;2022-12-07T08:33:47;417.17;;;387.90;;
31974;SDS011;18500;43.618;1.474;2022-12-07T08:36:13;452.88;;;421.08;;
31974;SDS011;18500;43.618;1.474;2022-12-07T08:38:40;435.30;;;404.90;;
31974;SDS011;18500;43.618;1.474;2022-12-07T08:41:07;730.38;;;672.17;;
31974;SDS011;18500;43.618;1.474;2022-12-07T08:43:33;729.83;;;671.85;;
31974;SDS011;18500;43.618;1.474;2022-12-07T08:48:32;501.80;;;465.13;;
31974;SDS011;18500;43.618;1.474;2022-12-07T08:51:01;549.05;;;507.40;;
31974;SDS011;18500;43.618;1.474;2022-12-07T08:53:28;514.72;;;475.95;;
31974;SDS011;18500;43.618;1.474;2022-12-07T08:55:54;557.97;;;518.78;;
31974;SDS011;18500;43.618;1.474;2022-12-07T08:58:21;474.80;;;441.95;;
31974;SDS011;18500;43.618;1.474;2022-12-07T09:00:47;522.58;;;484.50;;
31974;SDS011;18500;43.618;1.474;2022-12-07T09:03:13;544.53;;;504.55;;
31974;SDS011;18500;43.618;1.474;2022-12-07T09:05:38;624.35;;;578.00;;
31974;SDS011;18500;43.618;1.474;2022-12-07T09:08:04;558.33;;;517.97;;
31974;SDS011;18500;43.618;1.474;2022-12-07T09:10:31;592.75;;;550.25;;
31974;SDS011;18500;43.618;1.474;2022-12-07T09:12:58;533.28;;;496.17;;
31974;SDS011;18500;43.618;1.474;2022-12-07T09:15:26;694.85;;;645.05;;
31974;SDS011;18500;43.618;1.474;2022-12-07T09:17:52;697.25;;;647.38;;
31974;SDS011;18500;43.618;1.474;2022-12-07T09:20:18;691.17;;;643.85;;
31974;SDS011;18500;43.618;1.474;2022-12-07T09:22:44;902.38;;;829.53;;
31974;SDS011;18500;43.618;1.474;2022-12-07T09:25:09;691.67;;;642.28;;
31974;SDS011;18500;43.618;1.474;2022-12-07T09:27:35;709.47;;;659.90;;
31974;SDS011;18500;43.618;1.474;2022-12-07T09:30:01;846.17;;;781.78;;
31974;SDS011;18500;43.618;1.474;2022-12-07T09:32:28;726.60;;;675.83;;
31974;SDS011;18500;43.618;1.474;2022-12-07T09:34:54;825.38;;;763.58;;
31974;SDS011;18500;43.618;1.474;2022-12-07T09:37:20;790.03;;;733.47;;
31974;SDS011;18500;43.618;1.474;2022-12-07T09:39:45;742.53;;;691.67;;
31974;SDS011;18500;43.618;1.474;2022-12-07T09:42:17;662.17;;;617.67;;
31974;SDS011;18500;43.618;1.474;2022-12-07T09:45:16;556.38;;;520.53;;
31974;SDS011;18500;43.618;1.474;2022-12-07T09:47:46;859.60;;;795.15;;
31974;SDS011;18500;43.618;1.474;2022-12-07T09:50:13;711.75;;;662.20;;
31974;SDS011;18500;43.618;1.474;2022-12-07T09:55:15;1016.72;;;923.65;;
31974;SDS011;18500;43.618;1.474;2022-12-07T09:57:46;844.28;;;777.97;;
31974;SDS011;18500;43.618;1.474;2022-12-07T10:00:13;528.03;;;493.58;;
31974;SDS011;18500;43.618;1.474;2022-12-07T10:02:43;622.45;;;580.40;;
31974;SDS011;18500;43.618;1.474;2022-12-07T10:05:26;579.80;;;539.92;;
31974;SDS011;18500;43.618;1.474;2022-12-07T10:07:59;649.85;;;604.45;;
31974;SDS011;18500;43.618;1.474;2022-12-07T10:10:26;980.75;;;897.90;;
31974;SDS011;18500;43.618;1.474;2022-12-07T10:13:02;988.60;;;904.55;;
31974;SDS011;18500;43.618;1.474;2022-12-07T10:18:19;961.72;;;880.97;;
31974;SDS011;18500;43.618;1.474;2022-12-07T10:21:16;926.53;;;845.30;;
31974;SDS011;18500;43.618;1.474;2022-12-07T10:32:35;991.72;;;901.88;;
31974;SDS011;18500;43.618;1.474;2022-12-07T10:37:51;970.60;;;889.25;;
31974;SDS011;18500;43.618;1.474;2022-12-07T10:40:23;1025.55;;;932.05;;
31974;SDS011;18500;43.618;1.474;2022-12-07T10:43:18;999.28;;;912.08;;
31974;SDS011;18500;43.618;1.474;2022-12-07T11:04:18;801.67;;;742.20;;
31974;SDS011;18500;43.618;1.474;2022-12-07T11:09:52;942.80;;;863.70;;
31974;SDS011;18500;43.618;1.474;2022-12-07T11:15:31;1038.75;;;945.22;;
31974;SDS011;18500;43.618;1.474;2022-12-07T11:29:15;758.28;;;701.35;;
31974;SDS011;18500;43.618;1.474;2022-12-07T11:32:03;841.90;;;777.75;;
31974;SDS011;18500;43.618;1.474;2022-12-07T11:34:43;916.17;;;844.85;;
31974;SDS011;18500;43.618;1.474;2022-12-07T11:40:03;627.63;;;583.92;;
31974;SDS011;18500;43.618;1.474;2022-12-07T11:42:38;570.80;;;533.20;;
31974;SDS011;18500;43.618;1.474;2022-12-07T11:45:19;599.58;;;558.22;;
31974;SDS011;18500;43.618;1.474;2022-12-07T11:48:02;954.13;;;876.15;;
31974;SDS011;18500;43.618;1.474;2022-12-07T11:50:54;651.45;;;605.08;;
31974;SDS011;18500;43.618;1.474;2022-12-07T12:03:40;924.22;;;847.00;;
31974;SDS011;18500;43.618;1.474;2022-12-07T12:06:26;816.38;;;759.97;;
31974;SDS011;18500;43.618;1.474;2022-12-07T12:08:56;575.65;;;535.15;;
31974;SDS011;18500;43.618;1.474;2022-12-07T12:22:58;634.85;;;592.13;;
31974;SDS011;18500;43.618;1.474;2022-12-07T12:28:40;742.83;;;688.25;;
31974;SDS011;18500;43.618;1.474;2022-12-07T12:31:13;762.10;;;707.63;;
31974;SDS011;18500;43.618;1.474;2022-12-07T12:33:49;831.17;;;767.22;;
31974;SDS011;18500;43.618;1.474;2022-12-07T12:49:42;733.40;;;681.05;;
31974;SDS011;18500;43.618;1.474;2022-12-07T12:57:34;828.97;;;765.55;;
31974;SDS011;18500;43.618;1.474;2022-12-07T13:00:02;839.63;;;774.97;;
31974;SDS011;18500;43.618;1.474;2022-12-07T13:05:18;883.25;;;813.05;;
31974;SDS011;18500;43.618;1.474;2022-12-07T13:12:59;633.15;;;585.50;;
31974;SDS011;18500;43.618;1.474;2022-12-07T13:15:47;648.75;;;601.38;;
31974;SDS011;18500;43.618;1.474;2022-12-07T13:23:21;576.28;;;534.33;;
31974;SDS011;18500;43.618;1.474;2022-12-07T13:28:48;871.05;;;796.55;;
31974;SDS011;18500;43.618;1.474;2022-12-07T13:31:34;891.30;;;814.80;;
31974;SDS011;18500;43.618;1.474;2022-12-07T13:34:04;492.23;;;459.10;;
31974;SDS011;18500;43.618;1.474;2022-12-07T13:36:50;744.30;;;686.45;;
31974;SDS011;18500;43.618;1.474;2022-12-07T13:39:18;701.80;;;651.50;;
31974;SDS011;18500;43.618;1.474;2022-12-07T13:41:48;1046.50;;;956.15;;
31974;SDS011;18500;43.618;1.474;2022-12-07T13:44:17;1070.18;;;969.50;;
31974;SDS011;18500;43.618;1.474;2022-12-07T13:46:54;938.83;;;864.22;;
31974;SDS011;18500;43.618;1.474;2022-12-07T13:52:49;709.03;;;659.95;;
31974;SDS011;18500;43.618;1.474;2022-12-07T13:55:16;1248.43;;;999.90;;
31974;SDS011;18500;43.618;1.474;2022-12-07T13:57:42;1172.43;;;999.90;;
31974;SDS011;18500;43.618;1.474;2022-12-07T14:00:16;1207.60;;;999.90;;
31974;SDS011;18500;43.618;1.474;2022-12-07T14:02:56;1184.03;;;999.90;;
31974;SDS011;18500;43.618;1.474;2022-12-07T14:10:30;966.65;;;882.33;;
31974;SDS011;18500;43.618;1.474;2022-12-07T14:12:56;1051.40;;;959.95;;
31974;SDS011;18500;43.618;1.474;2022-12-07T14:15:29;1045.10;;;955.75;;
31974;SDS011;18500;43.618;1.474;2022-12-07T14:17:57;1021.35;;;934.40;;
31974;SDS011;18500;43.618;1.474;2022-12-07T14:20:32;1174.85;;;999.90;;
31974;SDS011;18500;43.618;1.474;2022-12-07T14:23:03;1211.72;;;999.90;;
31974;SDS011;18500;43.618;1.474;2022-12-07T14:28:43;1149.57;;;999.90;;
31974;SDS011;18500;43.618;1.474;2022-12-07T14:31:13;1090.78;;;984.53;;
31974;SDS011;18500;43.618;1.474;2022-12-07T14:33:41;1117.68;;;997.15;;
31974;SDS011;18500;43.618;1.474;2022-12-07T14:36:11;1140.35;;;999.90;;
31974;SDS011;18500;43.618;1.474;2022-12-07T14:38:38;1635.22;;;999.90;;
31974;SDS011;18500;43.618;1.474;2022-12-07T14:41:06;1553.95;;;999.90;;
31974;SDS011;18500;43.618;1.474;2022-12-07T14:44:00;1390.63;;;999.90;;
31974;SDS011;18500;43.618;1.474;2022-12-07T14:46:26;1651.47;;;999.90;;
31974;SDS011;18500;43.618;1.474;2022-12-07T14:48:51;1430.20;;;999.90;;
31974;SDS011;18500;43.618;1.474;2022-12-07T14:51:17;1096.25;;;980.05;;
31974;SDS011;18500;43.618;1.474;2022-12-07T14:53:44;1573.57;;;999.90;;
31974;SDS011;18500;43.618;1.474;2022-12-07T14:56:13;1233.47;;;999.90;;
31974;SDS011;18500;43.618;1.474;2022-12-07T14:58:39;1200.78;;;999.90;;
31974;SDS011;18500;43.618;1.474;2022-12-07T15:01:05;1409.50;;;999.90;;
31974;SDS011;18500;43.618;1.474;2022-12-07T15:03:31;1310.07;;;999.90;;
31974;SDS011;18500;43.618;1.474;2022-12-07T15:05:59;1152.93;;;999.90;;
31974;SDS011;18500;43.618;1.474;2022-12-07T15:08:25;1064.65;;;957.88;;
31974;SDS011;18500;43.618;1.474;2022-12-07T15:10:51;987.65;;;887.28;;
31974;SDS011;18500;43.618;1.474;2022-12-07T15:13:17;1095.05;;;977.28;;
31974;SDS011;18500;43.618;1.474;2022-12-07T15:16:01;1132.68;;;999.90;;
31974;SDS011;18500;43.618;1.474;2022-12-07T15:18:27;1217.78;;;999.90;;
31974;SDS011;18500;43.618;1.474;2022-12-07T15:20:53;1201.53;;;999.90;;
31974;SDS011;18500;43.618;1.474;2022-12-07T15:23:18;1082.80;;;974.13;;
31974;SDS011;18500;43.618;1.474;2022-12-07T15:25:44;1067.30;;;962.90;;
31974;SDS011;18500;43.618;1.474;2022-12-07T15:28:12;1006.55;;;918.97;;
31974;SDS011;18500;43.618;1.474;2022-12-07T15:30:38;1085.93;;;980.47;;
31974;SDS011;18500;43.618;1.474;2022-12-07T15:33:07;949.00;;;863.38;;
31974;SDS011;18500;43.618;1.474;2022-12-07T15:35:33;1145.70;;;999.90;;
31974;SDS011;18500;43.618;1.474;2022-12-07T15:38:02;1100.05;;;989.10;;
31974;SDS011;18500;43.618;1.474;2022-12-07T15:40:28;982.60;;;892.88;;
31974;SDS011;18500;43.618;1.474;2022-12-07T15:42:54;1095.78;;;987.25;;
31974;SDS011;18500;43.618;1.474;2022-12-07T15:45:20;1069.47;;;967.80;;
31974;SDS011;18500;43.618;1.474;2022-12-07T15:47:45;1077.40;;;970.78;;
31974;SDS011;18500;43.618;1.474;2022-12-07T15:50:12;1033.45;;;934.97;;
31974;SDS011;18500;43.618;1.474;2022-12-07T15:52:39;1058.10;;;960.88;;
31974;SDS011;18500;43.618;1.474;2022-12-07T15:55:05;1221.72;;;999.90;;
31974;SDS011;18500;43.618;1.474;2022-12-07T15:57:32;1251.65;;;999.90;;
31974;SDS011;18500;43.618;1.474;2022-12-07T16:00:00;955.70;;;870.60;;
31974;SDS011;18500;43.618;1.474;2022-12-07T16:02:25;901.80;;;824.15;;
31974;SDS011;18500;43.618;1.474;2022-12-07T16:04:51;951.30;;;864.47;;
31974;SDS011;18500;43.618;1.474;2022-12-07T16:07:17;746.25;;;686.28;;
31974;SDS011;18500;43.618;1.474;2022-12-07T16:09:44;668.28;;;616.38;;
31974;SDS011;18500;43.618;1.474;2022-12-07T16:12:11;828.28;;;760.70;;
31974;SDS011;18500;43.618;1.474;2022-12-07T16:14:37;425.50;;;395.83;;
31974;SDS011;18500;43.618;1.474;2022-12-07T16:17:04;402.27;;;373.58;;
31974;SDS011;18500;43.618;1.474;2022-12-07T16:19:32;495.80;;;459.85;;
31974;SDS011;18500;43.618;1.474;2022-12-07T16:21:58;513.80;;;477.70;;
31974;SDS011;18500;43.618;1.474;2022-12-07T16:24:24;576.28;;;534.60;;
31974;SDS011;18500;43.618;1.474;2022-12-07T16:26:50;583.58;;;539.75;;
31974;SDS011;18500;43.618;1.474;2022-12-07T16:29:17;470.42;;;437.67;;
31974;SDS011;18500;43.618;1.474;2022-12-07T16:31:44;664.25;;;611.78;;
31974;SDS011;18500;43.618;1.474;2022-12-07T16:34:10;517.65;;;477.42;;
31974;SDS011;18500;43.618;1.474;2022-12-07T16:36:36;472.73;;;442.17;;
31974;SDS011;18500;43.618;1.474;2022-12-07T16:39:02;408.08;;;381.88;;
31974;SDS011;18500;43.618;1.474;2022-12-07T16:41:28;664.08;;;617.42;;
31974;SDS011;18500;43.618;1.474;2022-12-07T16:43:54;588.63;;;548.83;;
31974;SDS011;18500;43.618;1.474;2022-12-07T16:46:20;644.22;;;599.33;;
31974;SDS011;18500;43.618;1.474;2022-12-07T16:48:45;516.33;;;481.23;;
31974;SDS011;18500;43.618;1.474;2022-12-07T16:51:12;624.63;;;580.45;;
31974;SDS011;18500;43.618;1.474;2022-12-07T16:53:39;557.88;;;518.65;;
31974;SDS011;18500;43.618;1.474;2022-12-07T16:56:13;504.30;;;470.02;;
31974;SDS011;18500;43.618;1.474;2022-12-07T16:58:41;480.15;;;447.80;;
31974;SDS011;18500;43.618;1.474;2022-12-07T17:01:11;584.25;;;543.67;;
31974;SDS011;18500;43.618;1.474;2022-12-07T17:03:41;507.33;;;472.25;;
31974;SDS011;18500;43.618;1.474;2022-12-07T17:06:14;656.58;;;609.80;;
31974;SDS011;18500;43.618;1.474;2022-12-07T17:08:47;720.00;;;668.20;;
31974;SDS011;18500;43.618;1.474;2022-12-07T17:11:14;754.15;;;698.63;;
31974;SDS011;18500;43.618;1.474;2022-12-07T17:13:41;799.72;;;735.45;;
31974;SDS011;18500;43.618;1.474;2022-12-07T17:16:26;711.15;;;655.72;;
31974;SDS011;18500;43.618;1.474;2022-12-07T17:18:53;701.83;;;650.17;;
31974;SDS011;18500;43.618;1.474;2022-12-07T17:21:19;736.53;;;680.58;;
31974;SDS011;18500;43.618;1.474;2022-12-07T17:23:45;637.10;;;589.08;;
31974;SDS011;18500;43.618;1.474;2022-12-07T17:26:13;519.03;;;478.98;;
31974;SDS011;18500;43.618;1.474;2022-12-07T17:28:40;456.02;;;421.70;;
31974;SDS011;18500;43.618;1.474;2022-12-07T17:31:07;613.45;;;566.88;;
31974;SDS011;18500;43.618;1.474;2022-12-07T17:33:34;642.17;;;592.83;;
31974;SDS011;18500;43.618;1.474;2022-12-07T17:36:00;671.63;;;620.65;;
31974;SDS011;18500;43.618;1.474;2022-12-07T17:38:27;645.53;;;595.85;;
31974;SDS011;18500;43.618;1.474;2022-12-07T17:40:53;641.42;;;590.65;;
31974;SDS011;18500;43.618;1.474;2022-12-07T17:43:19;633.17;;;583.95;;
31974;SDS011;18500;43.618;1.474;2022-12-07T17:45:44;594.55;;;547.58;;
31974;SDS011;18500;43.618;1.474;2022-12-07T17:48:10;611.97;;;564.70;;
31974;SDS011;18500;43.618;1.474;2022-12-07T17:50:38;578.40;;;534.63;;
31974;SDS011;18500;43.618;1.474;2022-12-07T17:53:23;574.33;;;532.95;;
31974;SDS011;18500;43.618;1.474;2022-12-07T17:55:48;644.70;;;597.83;;
31974;SDS011;18500;43.618;1.474;2022-12-07T17:58:18;655.08;;;606.95;;
31974;SDS011;18500;43.618;1.474;2022-12-07T18:00:44;570.03;;;527.47;;
31974;SDS011;18500;43.618;1.474;2022-12-07T18:03:10;616.53;;;569.28;;
31974;SDS011;18500;43.618;1.474;2022-12-07T18:05:36;629.33;;;581.45;;
31974;SDS011;18500;43.618;1.474;2022-12-07T18:08:03;661.75;;;611.13;;
31974;SDS011;18500;43.618;1.474;2022-12-07T18:10:29;675.75;;;624.20;;
31974;SDS011;18500;43.618;1.474;2022-12-07T18:12:56;695.60;;;642.47;;
31974;SDS011;18500;43.618;1.474;2022-12-07T18:15:41;627.17;;;579.88;;
31974;SDS011;18500;43.618;1.474;2022-12-07T18:18:07;620.47;;;573.30;;
31974;SDS011;18500;43.618;1.474;2022-12-07T18:20:33;656.40;;;607.83;;
31974;SDS011;18500;43.618;1.474;2022-12-07T18:22:59;620.20;;;574.72;;
31974;SDS011;18500;43.618;1.474;2022-12-07T18:25:25;650.55;;;601.55;;
31974;SDS011;18500;43.618;1.474;2022-12-07T18:27:50;604.17;;;559.90;;
31974;SDS011;18500;43.618;1.474;2022-12-07T18:30:16;589.47;;;546.35;;
31974;SDS011;18500;43.618;1.474;2022-12-07T18:32:42;499.75;;;463.13;;
31974;SDS011;18500;43.618;1.474;2022-12-07T18:35:07;526.80;;;487.25;;
31974;SDS011;18500;43.618;1.474;2022-12-07T18:37:33;540.30;;;499.48;;
31974;SDS011;18500;43.618;1.474;2022-12-07T18:39:59;529.25;;;487.90;;
31974;SDS011;18500;43.618;1.474;2022-12-07T18:42:24;568.08;;;525.03;;
31974;SDS011;18500;43.618;1.474;2022-12-07T18:44:50;557.35;;;515.17;;
31974;SDS011;18500;43.618;1.474;2022-12-07T18:47:16;583.53;;;539.72;;
31974;SDS011;18500;43.618;1.474;2022-12-07T18:49:41;559.70;;;517.88;;
31974;SDS011;18500;43.618;1.474;2022-12-07T18:52:07;525.20;;;485.20;;
31974;SDS011;18500;43.618;1.474;2022-12-07T18:54:33;614.47;;;568.63;;
31974;SDS011;18500;43.618;1.474;2022-12-07T18:56:59;594.13;;;549.05;;
31974;SDS011;18500;43.618;1.474;2022-12-07T18:59:24;627.85;;;579.42;;
31974;SDS011;18500;43.618;1.474;2022-12-07T19:02:09;609.83;;;563.47;;
31974;SDS011;18500;43.618;1.474;2022-12-07T19:04:35;583.00;;;539.03;;
31974;SDS011;18500;43.618;1.474;2022-12-07T19:07:01;617.22;;;571.40;;
31974;SDS011;18500;43.618;1.474;2022-12-07T19:09:27;554.40;;;513.00;;
31974;SDS011;18500;43.618;1.474;2022-12-07T19:11:52;600.88;;;556.08;;
31974;SDS011;18500;43.618;1.474;2022-12-07T19:14:21;486.23;;;450.80;;
31974;SDS011;18500;43.618;1.474;2022-12-07T19:16:53;458.73;;;424.15;;
31974;SDS011;18500;43.618;1.474;2022-12-07T19:19:21;561.28;;;517.47;;
31974;SDS011;18500;43.618;1.474;2022-12-07T19:21:49;592.25;;;543.40;;
31974;SDS011;18500;43.618;1.474;2022-12-07T19:24:15;603.25;;;555.20;;
31974;SDS011;18500;43.618;1.474;2022-12-07T19:26:40;604.03;;;556.20;;
31974;SDS011;18500;43.618;1.474;2022-12-07T19:29:06;593.70;;;546.65;;
31974;SDS011;18500;43.618;1.474;2022-12-07T19:31:32;596.15;;;549.08;;
31974;SDS011;18500;43.618;1.474;2022-12-07T19:33:57;581.55;;;534.05;;
31974;SDS011;18500;43.618;1.474;2022-12-07T19:36:23;544.22;;;498.58;;
31974;SDS011;18500;43.618;1.474;2022-12-07T19:38:49;501.42;;;460.20;;
31974;SDS011;18500;43.618;1.474;2022-12-07T19:41:15;383.20;;;350.58;;
31974;SDS011;18500;43.618;1.474;2022-12-07T19:44:18;297.85;;;271.63;;
31974;SDS011;18500;43.618;1.474;2022-12-07T19:46:50;269.42;;;248.13;;
31974;SDS011;18500;43.618;1.474;2022-12-07T19:49:18;295.05;;;270.92;;
31974;SDS011;18500;43.618;1.474;2022-12-07T19:51:46;317.50;;;292.52;;
31974;SDS011;18500;43.618;1.474;2022-12-07T19:54:14;298.13;;;274.52;;
31974;SDS011;18500;43.618;1.474;2022-12-07T19:56:41;311.00;;;285.75;;
31974;SDS011;18500;43.618;1.474;2022-12-07T19:59:08;281.65;;;252.50;;
31974;SDS011;18500;43.618;1.474;2022-12-07T20:01:34;271.08;;;248.38;;
31974;SDS011;18500;43.618;1.474;2022-12-07T20:04:05;315.90;;;291.25;;
31974;SDS011;18500;43.618;1.474;2022-12-07T20:06:33;316.88;;;292.80;;
31974;SDS011;18500;43.618;1.474;2022-12-07T20:08:58;351.70;;;324.92;;
31974;SDS011;18500;43.618;1.474;2022-12-07T20:11:24;397.77;;;367.83;;
31974;SDS011;18500;43.618;1.474;2022-12-07T20:14:09;285.92;;;264.08;;
31974;SDS011;18500;43.618;1.474;2022-12-07T20:16:36;307.70;;;283.65;;
31974;SDS011;18500;43.618;1.474;2022-12-07T20:19:07;320.13;;;295.38;;
31974;SDS011;18500;43.618;1.474;2022-12-07T20:21:33;352.23;;;326.25;;
31974;SDS011;18500;43.618;1.474;2022-12-07T20:24:00;393.05;;;364.58;;
31974;SDS011;18500;43.618;1.474;2022-12-07T20:26:26;423.20;;;393.17;;
31974;SDS011;18500;43.618;1.474;2022-12-07T20:28:52;455.75;;;422.52;;
31974;SDS011;18500;43.618;1.474;2022-12-07T20:31:19;426.35;;;394.08;;
31974;SDS011;18500;43.618;1.474;2022-12-07T20:33:45;408.63;;;376.83;;
31974;SDS011;18500;43.618;1.474;2022-12-07T20:36:11;389.80;;;360.30;;
31974;SDS011;18500;43.618;1.474;2022-12-07T20:38:38;391.05;;;361.50;;
31974;SDS011;18500;43.618;1.474;2022-12-07T20:41:05;480.77;;;446.60;;
31974;SDS011;18500;43.618;1.474;2022-12-07T20:43:32;504.63;;;469.30;;
31974;SDS011;18500;43.618;1.474;2022-12-07T20:45:58;547.30;;;507.88;;
31974;SDS011;18500;43.618;1.474;2022-12-07T20:48:24;551.40;;;512.83;;
31974;SDS011;18500;43.618;1.474;2022-12-07T20:50:51;585.33;;;545.15;;
31974;SDS011;18500;43.618;1.474;2022-12-07T20:53:17;601.38;;;559.42;;
31974;SDS011;18500;43.618;1.474;2022-12-07T20:55:42;596.10;;;554.67;;
31974;SDS011;18500;43.618;1.474;2022-12-07T20:58:09;573.70;;;534.13;;
31974;SDS011;18500;43.618;1.474;2022-12-07T21:00:35;530.17;;;493.88;;
31974;SDS011;18500;43.618;1.474;2022-12-07T21:03:01;545.72;;;507.75;;
31974;SDS011;18500;43.618;1.474;2022-12-07T21:05:30;557.75;;;519.53;;
31974;SDS011;18500;43.618;1.474;2022-12-07T21:07:57;594.35;;;552.28;;
31974;SDS011;18500;43.618;1.474;2022-12-07T21:10:22;645.75;;;598.28;;
31974;SDS011;18500;43.618;1.474;2022-12-07T21:12:48;583.55;;;540.70;;
31974;SDS011;18500;43.618;1.474;2022-12-07T21:15:14;579.22;;;526.67;;
31974;SDS011;18500;43.618;1.474;2022-12-07T21:17:39;561.80;;;513.80;;
31974;SDS011;18500;43.618;1.474;2022-12-07T21:20:05;613.22;;;564.65;;
31974;SDS011;18500;43.618;1.474;2022-12-07T21:22:31;590.30;;;544.33;;
31974;SDS011;18500;43.618;1.474;2022-12-07T21:24:57;596.13;;;549.92;;
31974;SDS011;18500;43.618;1.474;2022-12-07T21:27:23;523.03;;;483.45;;
31974;SDS011;18500;43.618;1.474;2022-12-07T21:29:48;557.50;;;516.08;;
31974;SDS011;18500;43.618;1.474;2022-12-07T21:32:14;576.72;;;532.22;;
31974;SDS011;18500;43.618;1.474;2022-12-07T21:34:40;543.25;;;500.83;;
31974;SDS011;18500;43.618;1.474;2022-12-07T21:37:05;508.83;;;468.88;;
31974;SDS011;18500;43.618;1.474;2022-12-07T21:39:31;492.20;;;452.90;;
31974;SDS011;18500;43.618;1.474;2022-12-07T21:41:57;502.25;;;463.42;;
31974;SDS011;18500;43.618;1.474;2022-12-07T21:44:22;443.98;;;410.52;;
31974;SDS011;18500;43.618;1.474;2022-12-07T21:46:48;531.42;;;492.63;;
31974;SDS011;18500;43.618;1.474;2022-12-07T21:49:14;554.13;;;513.35;;
31974;SDS011;18500;43.618;1.474;2022-12-07T21:51:40;602.25;;;559.38;;
31974;SDS011;18500;43.618;1.474;2022-12-07T21:54:07;569.65;;;529.15;;
31974;SDS011;18500;43.618;1.474;2022-12-07T21:56:35;519.50;;;482.88;;
31974;SDS011;18500;43.618;1.474;2022-12-07T21:59:09;433.98;;;404.65;;
31974;SDS011;18500;43.618;1.474;2022-12-07T22:01:37;393.25;;;364.95;;
31974;SDS011;18500;43.618;1.474;2022-12-07T22:07:04;359.92;;;334.42;;
31974;SDS011;18500;43.618;1.474;2022-12-07T22:09:29;363.92;;;337.63;;
31974;SDS011;18500;43.618;1.474;2022-12-07T22:11:56;437.80;;;406.13;;
31974;SDS011;18500;43.618;1.474;2022-12-07T22:14:21;423.95;;;393.70;;
31974;SDS011;18500;43.618;1.474;2022-12-07T22:17:06;422.70;;;392.92;;
31974;SDS011;18500;43.618;1.474;2022-12-07T22:19:31;446.25;;;414.45;;
31974;SDS011;18500;43.618;1.474;2022-12-07T22:21:57;462.00;;;429.30;;
31974;SDS011;18500;43.618;1.474;2022-12-07T22:24:23;461.50;;;429.77;;
31974;SDS011;18500;43.618;1.474;2022-12-07T22:26:48;456.90;;;423.88;;
31974;SDS011;18500;43.618;1.474;2022-12-07T22:29:14;475.17;;;441.52;;
31974;SDS011;18500;43.618;1.474;2022-12-07T22:31:40;449.98;;;416.75;;
31974;SDS011;18500;43.618;1.474;2022-12-07T22:34:06;433.55;;;401.02;;
31974;SDS011;18500;43.618;1.474;2022-12-07T22:36:36;423.08;;;393.40;;
31974;SDS011;18500;43.618;1.474;2022-12-07T22:39:02;412.65;;;381.73;;
31974;SDS011;18500;43.618;1.474;2022-12-07T22:41:28;406.58;;;376.60;;
31974;SDS011;18500;43.618;1.474;2022-12-07T22:43:55;418.25;;;387.52;;
31974;SDS011;18500;43.618;1.474;2022-12-07T22:46:22;410.65;;;379.63;;
31974;SDS011;18500;43.618;1.474;2022-12-07T22:48:49;437.60;;;405.10;;
31974;SDS011;18500;43.618;1.474;2022-12-07T22:51:19;472.45;;;437.55;;
31974;SDS011;18500;43.618;1.474;2022-12-07T22:53:46;401.33;;;370.60;;
31974;SDS011;18500;43.618;1.474;2022-12-07T22:56:12;420.52;;;388.35;;
31974;SDS011;18500;43.618;1.474;2022-12-07T22:58:38;412.58;;;381.30;;
